高雄國際航空站 - 塔台/地面席

METAR RCKH 170430Z 27012KT 8000 FEW012 SCT025 BKN150 32/26 Q0997 NOSIG RMK 28011KT/R09 A2946=

站台狀態:Online
最後更新:2019-07-17 12:45:01